createdAt,value
2022-10-23T00:00:58.283Z,10.55
2022-10-23T00:01:58.281Z,10.47
2022-10-23T00:02:58.358Z,10.47
2022-10-23T00:03:58.249Z,10.55
2022-10-23T00:04:58.249Z,10.74
2022-10-23T00:05:58.249Z,10.44
2022-10-23T00:06:58.245Z,10.47
2022-10-23T00:07:58.224Z,10.56
2022-10-23T00:08:58.224Z,10.44
2022-10-23T00:09:58.213Z,10.56
2022-10-23T00:10:58.223Z,10.52
2022-10-23T00:11:58.222Z,10.44
2022-10-23T00:12:58.201Z,10.44
2022-10-23T00:13:58.187Z,10.58
2022-10-23T00:14:58.185Z,10.51
2022-10-23T00:15:58.211Z,10.52
2022-10-23T00:16:58.185Z,10.56
2022-10-23T00:17:58.161Z,10.37
2022-10-23T00:18:58.189Z,10.60
2022-10-23T00:19:58.154Z,10.53
2022-10-23T00:20:58.141Z,10.56
2022-10-23T00:21:58.157Z,10.37
2022-10-23T00:22:58.136Z,10.47
2022-10-23T00:23:58.187Z,10.39
2022-10-23T00:24:58.132Z,10.39
2022-10-23T00:25:58.107Z,10.28
2022-10-23T00:26:58.113Z,10.37
2022-10-23T00:27:58.106Z,10.37
2022-10-23T00:28:58.094Z,10.40
2022-10-23T00:29:58.089Z,10.37
2022-10-23T00:30:58.084Z,10.37
2022-10-23T00:31:58.066Z,10.42
2022-10-23T00:32:58.081Z,10.30
2022-10-23T00:33:58.057Z,10.36
2022-10-23T00:34:58.049Z,10.33
2022-10-23T00:35:58.048Z,10.30
2022-10-23T00:36:58.037Z,10.26
2022-10-23T00:37:58.045Z,10.30
2022-10-23T00:38:58.033Z,10.22
2022-10-23T00:39:58.021Z,10.19
2022-10-23T00:40:58.018Z,10.21
2022-10-23T00:41:58.005Z,10.18
2022-10-23T00:42:58.009Z,10.22
2022-10-23T00:43:57.985Z,10.15
2022-10-23T00:44:58.002Z,10.18
2022-10-23T00:45:57.981Z,10.19
2022-10-23T00:46:58.052Z,10.01
2022-10-23T00:47:57.973Z,10.04
2022-10-23T00:48:57.993Z,10.06
2022-10-23T00:49:57.959Z,10.14
2022-10-23T00:50:57.949Z,9.99
2022-10-23T00:51:57.942Z,10.03
2022-10-23T00:52:57.930Z,10.07
2022-10-23T00:54:12.649Z,10.06
2022-10-23T00:54:58.944Z,10.01
2022-10-23T00:55:57.918Z,10.09
2022-10-23T00:56:57.904Z,10.07
2022-10-23T00:57:57.904Z,10.04
2022-10-23T00:58:57.909Z,10.15
2022-10-23T00:59:57.889Z,10.12
2022-10-23T01:00:57.919Z,10.18
2022-10-23T01:01:57.982Z,10.12
2022-10-23T01:02:57.866Z,10.15
2022-10-23T01:03:57.881Z,10.24
2022-10-23T01:04:57.853Z,10.14
2022-10-23T01:05:57.857Z,10.06
2022-10-23T01:06:57.837Z,10.09
2022-10-23T01:07:57.832Z,10.06
2022-10-23T01:08:57.838Z,10.03
2022-10-23T01:09:57.825Z,10.04
2022-10-23T01:10:57.812Z,9.99
2022-10-23T01:11:57.815Z,9.97
2022-10-23T01:12:57.804Z,10.00
2022-10-23T01:13:57.851Z,9.96
2022-10-23T01:14:57.801Z,9.88
2022-10-23T01:15:57.780Z,9.91
2022-10-23T01:16:57.776Z,9.83
2022-10-23T01:17:57.782Z,9.75
2022-10-23T01:18:57.756Z,9.89
2022-10-23T01:19:57.765Z,9.75
2022-10-23T01:20:57.741Z,9.85
2022-10-23T01:21:57.737Z,9.82
2022-10-23T01:22:58.733Z,9.76
2022-10-23T01:23:57.720Z,9.73
2022-10-23T01:24:57.730Z,9.75
2022-10-23T01:25:57.704Z,9.68
2022-10-23T01:26:57.709Z,9.64
2022-10-23T01:27:57.706Z,9.66
2022-10-23T01:28:57.725Z,9.61
2022-10-23T01:29:57.693Z,9.67
2022-10-23T01:30:57.681Z,9.61
2022-10-23T01:31:57.660Z,9.52
2022-10-23T01:32:57.669Z,9.53
2022-10-23T01:33:57.662Z,9.57
2022-10-23T01:34:57.706Z,9.50
2022-10-23T01:35:57.643Z,9.61
2022-10-23T01:36:57.634Z,9.53
2022-10-23T01:37:57.639Z,9.49
2022-10-23T01:38:57.710Z,9.53
2022-10-23T01:39:57.617Z,9.56
2022-10-23T01:40:57.611Z,9.53
2022-10-23T01:41:57.601Z,9.52
2022-10-23T01:42:57.596Z,9.56
2022-10-23T01:43:57.582Z,9.58
2022-10-23T01:44:57.598Z,9.57
2022-10-23T01:45:57.577Z,9.60
2022-10-23T01:46:57.565Z,9.64
2022-10-23T01:47:57.561Z,9.52
2022-10-23T01:48:57.556Z,9.61
2022-10-23T01:49:57.567Z,9.58
2022-10-23T01:50:57.550Z,9.57
2022-10-23T01:51:57.533Z,9.52
2022-10-23T01:52:57.525Z,9.57
2022-10-23T01:53:57.529Z,9.63
2022-10-23T01:54:57.517Z,9.60
2022-10-23T01:55:57.617Z,9.63
2022-10-23T01:56:57.501Z,9.60
2022-10-23T01:57:57.496Z,9.60
2022-10-23T01:58:57.482Z,9.67
2022-10-23T01:59:57.487Z,9.63
2022-10-23T02:00:57.582Z,9.60
2022-10-23T02:01:57.569Z,9.64
2022-10-23T02:02:57.466Z,9.70
2022-10-23T02:04:57.453Z,9.67
2022-10-23T02:05:57.450Z,9.68
2022-10-23T02:06:57.448Z,9.67
2022-10-23T02:07:57.425Z,9.64
2022-10-23T02:08:57.421Z,9.60
2022-10-23T02:09:57.612Z,9.61
2022-10-23T02:10:57.405Z,9.66
2022-10-23T02:11:57.501Z,9.60
2022-10-23T02:12:57.420Z,9.67
2022-10-23T02:13:57.380Z,9.64
2022-10-23T02:14:58.378Z,9.63
2022-10-23T02:15:57.376Z,9.60
2022-10-23T02:16:57.356Z,9.52
2022-10-23T02:17:57.349Z,9.48
2022-10-23T02:18:57.349Z,9.42
2022-10-23T02:19:57.328Z,9.38
2022-10-23T02:20:58.325Z,9.48
2022-10-23T02:21:57.349Z,9.40
2022-10-23T02:22:57.308Z,9.28
2022-10-23T02:23:57.312Z,9.27
2022-10-23T02:24:57.313Z,9.39
2022-10-23T02:25:57.296Z,9.23
2022-10-23T02:26:57.317Z,9.16
2022-10-23T02:27:57.293Z,9.24
2022-10-23T02:28:57.336Z,9.24
2022-10-23T02:29:57.272Z,9.21
2022-10-23T02:30:57.260Z,9.28
2022-10-23T02:31:57.268Z,9.27
2022-10-23T02:32:57.292Z,9.31
2022-10-23T02:33:57.245Z,9.23
2022-10-23T02:34:57.240Z,9.35
2022-10-23T02:35:57.225Z,9.31
2022-10-23T02:36:58.229Z,9.38
2022-10-23T02:37:57.253Z,9.35
2022-10-23T02:38:57.212Z,9.27
2022-10-23T02:39:57.204Z,9.32
2022-10-23T02:40:57.194Z,9.25
2022-10-23T02:41:57.177Z,9.16
2022-10-23T02:42:57.185Z,9.20
2022-10-23T02:43:57.323Z,9.31
2022-10-23T02:44:57.161Z,9.25
2022-10-23T02:45:57.180Z,9.20
2022-10-23T02:46:57.151Z,9.13
2022-10-23T02:47:57.142Z,9.09
2022-10-23T02:48:57.148Z,8.93
2022-10-23T02:49:57.138Z,9.01
2022-10-23T02:50:57.150Z,8.99
2022-10-23T02:51:57.136Z,9.04
2022-10-23T02:52:57.117Z,9.09
2022-10-23T02:54:57.105Z,9.15
2022-10-23T02:55:57.093Z,9.18
2022-10-23T02:56:57.072Z,9.16
2022-10-23T02:57:57.076Z,9.20
2022-10-23T02:58:57.100Z,9.16
2022-10-23T02:59:57.056Z,9.20
2022-10-23T03:00:57.113Z,9.23
2022-10-23T03:01:57.218Z,9.25
2022-10-23T03:02:57.035Z,9.30
2022-10-23T03:03:57.032Z,9.28
2022-10-23T03:04:57.037Z,9.35
2022-10-23T03:05:57.054Z,9.35
2022-10-23T03:06:57.001Z,9.42
2022-10-23T03:07:57.000Z,9.42
2022-10-23T03:08:57.004Z,9.38
2022-10-23T03:09:57.001Z,9.46
2022-10-23T03:10:56.990Z,9.43
2022-10-23T03:11:57.008Z,9.42
2022-10-23T03:12:56.965Z,9.45
2022-10-23T03:13:56.970Z,9.42
2022-10-23T03:14:56.980Z,9.43
2022-10-23T03:15:56.952Z,9.52
2022-10-23T03:16:56.941Z,9.52
2022-10-23T03:17:56.947Z,9.50
2022-10-23T03:18:56.937Z,9.52
2022-10-23T03:19:56.932Z,9.50
2022-10-23T03:20:56.924Z,9.43
2022-10-23T03:21:56.925Z,9.42
2022-10-23T03:22:56.900Z,9.49
2022-10-23T03:23:56.892Z,9.49
2022-10-23T03:24:56.895Z,9.42
2022-10-23T03:25:56.896Z,9.50
2022-10-23T03:26:56.916Z,9.48
2022-10-23T03:27:56.860Z,9.43
2022-10-23T03:28:56.848Z,9.50
2022-10-23T03:29:56.996Z,9.43
2022-10-23T03:30:56.877Z,9.32
2022-10-23T03:31:56.870Z,9.50
2022-10-23T03:32:56.810Z,9.43
2022-10-23T03:33:57.818Z,9.40
2022-10-23T03:34:57.817Z,9.45
2022-10-23T03:35:56.799Z,9.53
2022-10-23T03:36:56.810Z,9.43
2022-10-23T03:37:56.855Z,9.35
2022-10-23T03:38:56.786Z,9.35
2022-10-23T03:39:56.786Z,9.34
2022-10-23T03:40:56.779Z,9.48
2022-10-23T03:41:56.766Z,9.40
2022-10-23T03:42:56.782Z,9.45
2022-10-23T03:43:56.777Z,9.42
2022-10-23T03:44:56.742Z,9.43
2022-10-23T03:45:56.747Z,9.48
2022-10-23T03:46:56.726Z,9.48
2022-10-23T03:47:56.726Z,9.52
2022-10-23T03:48:56.771Z,9.52
2022-10-23T03:49:56.705Z,9.52
2022-10-23T03:50:56.698Z,9.52
2022-10-23T03:51:56.696Z,9.48
2022-10-23T03:52:56.682Z,9.52
2022-10-23T03:53:56.695Z,9.53
2022-10-23T03:54:56.683Z,9.46
2022-10-23T03:55:56.674Z,9.43
2022-10-23T03:56:57.666Z,9.48
2022-10-23T03:57:56.654Z,9.45
2022-10-23T03:58:56.663Z,9.50
2022-10-23T03:59:56.654Z,9.50
2022-10-23T04:00:56.695Z,9.46
2022-10-23T04:01:56.806Z,9.52
2022-10-23T04:02:56.610Z,9.48
2022-10-23T04:03:56.645Z,9.43
2022-10-23T04:04:56.606Z,9.40
2022-10-23T04:05:56.606Z,9.38
2022-10-23T04:06:56.589Z,9.31
2022-10-23T04:07:56.594Z,9.39
2022-10-23T04:08:56.591Z,9.28
2022-10-23T04:09:56.578Z,9.25
2022-10-23T04:10:56.583Z,9.30
2022-10-23T04:11:56.572Z,9.35
2022-10-23T04:12:56.554Z,9.28
2022-10-23T04:13:56.562Z,9.24
2022-10-23T04:14:56.534Z,9.30
2022-10-23T04:15:56.536Z,9.31
2022-10-23T04:16:56.529Z,9.30
2022-10-23T04:17:56.506Z,9.25
2022-10-23T04:18:57.510Z,9.21
2022-10-23T04:19:56.503Z,9.21
2022-10-23T04:20:56.515Z,9.18
2022-10-23T04:21:56.495Z,9.24
2022-10-23T04:22:56.484Z,9.15
2022-10-23T04:23:56.480Z,9.13
2022-10-23T04:24:56.469Z,9.25
2022-10-23T04:25:56.486Z,9.23
2022-10-23T04:26:56.459Z,9.15
2022-10-23T04:27:56.446Z,9.24
2022-10-23T04:28:56.442Z,9.27
2022-10-23T04:29:59.009Z,9.18
2022-10-23T04:30:56.442Z,9.13
2022-10-23T04:31:56.414Z,9.13
2022-10-23T04:32:56.429Z,9.09
2022-10-23T04:33:56.464Z,9.06
2022-10-23T04:34:56.452Z,9.04
2022-10-23T04:35:56.394Z,9.04
2022-10-23T04:36:56.398Z,8.99
2022-10-23T04:37:56.390Z,8.93
2022-10-23T04:38:56.375Z,8.83
2022-10-23T04:39:56.374Z,8.87
2022-10-23T04:40:56.369Z,8.79
2022-10-23T04:41:56.378Z,8.91
2022-10-23T04:42:56.342Z,8.91
2022-10-23T04:43:56.338Z,8.90
2022-10-23T04:44:56.342Z,8.96
2022-10-23T04:45:56.330Z,8.96
2022-10-23T04:46:56.343Z,8.97
2022-10-23T04:47:56.330Z,9.01
2022-10-23T04:48:56.313Z,9.04
2022-10-23T04:49:56.301Z,9.04
2022-10-23T04:50:56.295Z,8.97
2022-10-23T04:51:56.281Z,9.15
2022-10-23T04:52:56.294Z,9.09
2022-10-23T04:53:56.267Z,9.09
2022-10-23T04:54:56.258Z,9.15
2022-10-23T04:55:56.262Z,8.96
2022-10-23T04:56:56.252Z,9.15
2022-10-23T04:57:56.258Z,9.09
2022-10-23T04:58:56.266Z,9.13
2022-10-23T04:59:56.221Z,9.05
2022-10-23T05:00:56.458Z,9.05
2022-10-23T05:01:56.264Z,9.16
2022-10-23T05:02:56.225Z,9.01
2022-10-23T05:03:56.221Z,9.04
2022-10-23T05:04:56.190Z,9.16
2022-10-23T05:05:56.189Z,9.05
2022-10-23T05:06:56.182Z,9.13
2022-10-23T05:07:56.170Z,9.13
2022-10-23T05:08:56.173Z,9.18
2022-10-23T05:09:56.157Z,9.12
2022-10-23T05:10:56.152Z,9.10
2022-10-23T05:11:56.141Z,9.06
2022-10-23T05:12:56.142Z,9.23
2022-10-23T05:13:56.150Z,9.06
2022-10-23T05:14:56.117Z,9.12
2022-10-23T05:15:56.106Z,9.20
2022-10-23T05:16:56.110Z,9.16
2022-10-23T05:17:56.113Z,9.10
2022-10-23T05:18:56.107Z,9.10
2022-10-23T05:19:56.089Z,9.04
2022-10-23T05:20:56.076Z,9.09
2022-10-23T05:21:56.129Z,9.13
2022-10-23T05:22:56.066Z,9.10
2022-10-23T05:23:56.120Z,9.09
2022-10-23T05:24:56.045Z,9.13
2022-10-23T05:25:56.045Z,9.02
2022-10-23T05:26:56.033Z,8.96
2022-10-23T05:27:56.034Z,8.99
2022-10-23T05:28:56.029Z,9.04
2022-10-23T05:29:56.005Z,8.99
2022-10-23T05:30:55.993Z,9.01
2022-10-23T05:31:57.005Z,9.05
2022-10-23T05:32:55.986Z,9.01
2022-10-23T05:33:55.989Z,9.02
2022-10-23T05:34:55.983Z,9.04
2022-10-23T05:35:55.992Z,9.09
2022-10-23T05:36:55.967Z,9.06
2022-10-23T05:37:55.957Z,8.97
2022-10-23T05:38:55.946Z,9.04
2022-10-23T05:39:55.950Z,9.09
2022-10-23T05:40:55.935Z,9.09
2022-10-23T05:41:55.939Z,9.04
2022-10-23T05:42:55.930Z,9.09
2022-10-23T05:43:55.909Z,9.05
2022-10-23T05:44:55.917Z,9.05
2022-10-23T05:45:55.905Z,9.18
2022-10-23T05:46:55.918Z,9.12
2022-10-23T05:48:05.674Z,9.04
2022-10-23T05:48:56.903Z,9.12
2022-10-23T05:49:55.873Z,9.12
2022-10-23T05:50:55.853Z,9.10
2022-10-23T05:51:55.870Z,9.09
2022-10-23T05:52:55.841Z,9.10
2022-10-23T05:53:55.838Z,9.20
2022-10-23T05:54:55.837Z,9.20
2022-10-23T05:55:55.823Z,8.99
2022-10-23T05:56:55.845Z,9.09
2022-10-23T05:57:55.817Z,9.09
2022-10-23T05:58:55.796Z,9.02
2022-10-23T05:59:55.797Z,9.10
2022-10-23T06:00:55.984Z,9.20
2022-10-23T06:01:56.079Z,9.09
2022-10-23T06:02:55.770Z,9.12
2022-10-23T06:03:55.770Z,9.02
2022-10-23T06:04:55.766Z,9.10
2022-10-23T06:05:55.763Z,9.13
2022-10-23T06:06:55.805Z,9.16
2022-10-23T06:07:56.774Z,9.16
2022-10-23T06:08:55.738Z,9.16
2022-10-23T06:09:55.733Z,9.16
2022-10-23T06:10:55.720Z,9.09
2022-10-23T06:11:55.705Z,9.10
2022-10-23T06:12:55.725Z,9.13
2022-10-23T06:14:55.685Z,9.13
2022-10-23T06:15:55.685Z,9.15
2022-10-23T06:16:55.686Z,9.25
2022-10-23T06:17:55.677Z,9.21
2022-10-23T06:18:55.652Z,9.28
2022-10-23T06:19:55.649Z,9.21
2022-10-23T06:20:55.637Z,9.24
2022-10-23T06:21:55.637Z,9.28
2022-10-23T06:22:55.922Z,9.27
2022-10-23T06:23:55.621Z,9.32
2022-10-23T06:24:55.644Z,9.34
2022-10-23T06:25:55.606Z,9.42
2022-10-23T06:26:55.601Z,9.38
2022-10-23T06:27:55.609Z,9.46
2022-10-23T06:28:55.580Z,9.45
2022-10-23T06:29:55.580Z,9.34
2022-10-23T06:30:55.577Z,9.27
2022-10-23T06:31:55.575Z,9.28
2022-10-23T06:32:55.568Z,9.28
2022-10-23T06:33:55.553Z,9.50
2022-10-23T06:34:55.605Z,9.45
2022-10-23T06:35:55.549Z,9.45
2022-10-23T06:36:55.533Z,9.45
2022-10-23T06:37:55.537Z,9.46
2022-10-23T06:38:55.583Z,9.60
2022-10-23T06:39:55.533Z,9.53
2022-10-23T06:40:55.514Z,9.53
2022-10-23T06:41:55.504Z,9.52
2022-10-23T06:42:55.520Z,9.64
2022-10-23T06:43:55.494Z,9.76
2022-10-23T06:44:55.485Z,9.68
2022-10-23T06:45:55.477Z,9.63
2022-10-23T06:46:55.477Z,9.73
2022-10-23T06:47:55.474Z,9.83
2022-10-23T06:48:55.462Z,9.82
2022-10-23T06:49:55.453Z,9.71
2022-10-23T06:50:55.429Z,9.82
2022-10-23T06:51:55.497Z,9.75
2022-10-23T06:52:55.450Z,9.83
2022-10-23T06:53:55.434Z,9.73
2022-10-23T06:54:55.413Z,9.68
2022-10-23T06:55:55.664Z,9.67
2022-10-23T06:56:55.405Z,9.81
2022-10-23T06:57:55.393Z,9.75
2022-10-23T06:58:55.413Z,9.82
2022-10-23T06:59:55.374Z,9.94
2022-10-23T07:00:55.447Z,9.94
2022-10-23T07:02:55.353Z,10.10
2022-10-23T07:03:55.360Z,10.09
2022-10-23T07:04:55.337Z,10.15
2022-10-23T07:05:55.341Z,10.24
2022-10-23T07:06:55.322Z,10.30
2022-10-23T07:07:55.320Z,10.36
2022-10-23T07:08:55.333Z,10.37
2022-10-23T07:09:55.302Z,10.53
2022-10-23T07:10:55.342Z,10.51
2022-10-23T07:11:55.308Z,10.52
2022-10-23T07:12:55.291Z,10.62
2022-10-23T07:13:55.276Z,10.68
2022-10-23T07:14:55.285Z,10.71
2022-10-23T07:15:55.292Z,10.83
2022-10-23T07:16:55.256Z,10.86
2022-10-23T07:17:55.252Z,11.09
2022-10-23T07:18:55.255Z,11.25
2022-10-23T07:19:55.269Z,11.43
2022-10-23T07:20:55.242Z,11.56
2022-10-23T07:21:55.225Z,11.62
2022-10-23T07:22:55.223Z,11.72
2022-10-23T07:23:55.204Z,12.06
2022-10-23T07:24:55.236Z,12.16
2022-10-23T07:25:55.198Z,12.21
2022-10-23T07:26:55.199Z,12.74
2022-10-23T07:27:55.190Z,12.99
2022-10-23T07:28:55.184Z,13.30
2022-10-23T07:29:55.181Z,13.76
2022-10-23T07:30:55.170Z,14.14
2022-10-23T07:31:55.157Z,14.64
2022-10-23T07:32:55.152Z,15.28
2022-10-23T07:33:55.148Z,15.81
2022-10-23T07:34:55.145Z,16.37
2022-10-23T07:35:55.140Z,16.80
2022-10-23T07:36:55.140Z,17.23
2022-10-23T07:37:55.126Z,17.79
2022-10-23T07:38:55.128Z,18.03
2022-10-23T07:39:55.114Z,18.42
2022-10-23T07:40:55.100Z,18.42
2022-10-23T07:41:55.097Z,18.82
2022-10-23T07:42:55.092Z,19.06
2022-10-23T07:43:55.085Z,19.46
2022-10-23T07:44:55.068Z,19.90
2022-10-23T07:45:55.073Z,20.25
2022-10-23T07:46:55.070Z,20.59
2022-10-23T07:47:55.061Z,20.43
2022-10-23T07:48:55.060Z,20.02
2022-10-23T07:49:55.033Z,19.87
2022-10-23T07:50:55.032Z,19.83
2022-10-23T07:51:55.064Z,20.30
2022-10-23T07:52:55.012Z,20.03
2022-10-23T07:53:55.018Z,20.35
2022-10-23T07:54:55.000Z,20.80
2022-10-23T07:55:54.992Z,20.87
2022-10-23T07:56:55.008Z,21.27
2022-10-23T07:57:54.988Z,21.69
2022-10-23T07:58:54.976Z,21.98
2022-10-23T07:59:54.968Z,22.06
2022-10-23T08:00:54.964Z,22.10
2022-10-23T08:01:55.816Z,21.99
2022-10-23T08:02:56.449Z,21.90
2022-10-23T08:03:54.956Z,21.71
2022-10-23T08:04:54.936Z,21.41
2022-10-23T08:05:54.927Z,21.46
2022-10-23T08:06:54.920Z,21.48
2022-10-23T08:07:54.916Z,21.23
2022-10-23T08:08:54.936Z,21.21
2022-10-23T08:09:54.895Z,21.23
2022-10-23T08:10:54.887Z,21.26
2022-10-23T08:11:54.908Z,21.26
2022-10-23T08:12:54.892Z,21.45
2022-10-23T08:13:54.868Z,21.64
2022-10-23T08:14:54.884Z,21.69
2022-10-23T08:15:54.856Z,22.25
2022-10-23T08:16:54.921Z,22.56
2022-10-23T08:17:54.857Z,23.12
2022-10-23T08:18:54.869Z,23.47
2022-10-23T08:19:54.833Z,23.52
2022-10-23T08:20:54.831Z,23.61
2022-10-23T08:21:54.834Z,23.60
2022-10-23T08:22:54.902Z,23.76
2022-10-23T08:23:54.823Z,23.77
2022-10-23T08:24:54.797Z,23.65
2022-10-23T08:25:54.777Z,23.77
2022-10-23T08:26:54.788Z,23.71
2022-10-23T08:27:54.784Z,23.85
2022-10-23T08:28:54.785Z,23.87
2022-10-23T08:29:54.764Z,23.94
2022-10-23T08:30:54.764Z,23.80
2022-10-23T08:31:54.752Z,23.77
2022-10-23T08:32:54.838Z,24.01
2022-10-23T08:33:54.754Z,24.02
2022-10-23T08:34:54.755Z,24.05
2022-10-23T08:35:54.720Z,24.14
2022-10-23T08:36:54.728Z,24.23
2022-10-23T08:37:54.719Z,24.23
2022-10-23T08:38:54.720Z,24.32
2022-10-23T08:39:54.696Z,24.22
2022-10-23T08:40:54.724Z,24.23
2022-10-23T08:41:54.692Z,24.22
2022-10-23T08:42:54.850Z,23.95
2022-10-23T08:43:54.735Z,23.65
2022-10-23T08:44:54.655Z,23.50
2022-10-23T08:45:54.664Z,23.42
2022-10-23T08:46:54.671Z,23.31
2022-10-23T08:47:54.639Z,23.08
2022-10-23T08:48:54.657Z,23.05
2022-10-23T08:49:54.639Z,22.89
2022-10-23T08:50:54.634Z,22.82
2022-10-23T08:51:54.634Z,22.77
2022-10-23T08:52:54.691Z,22.86
2022-10-23T08:53:54.612Z,23.15
2022-10-23T08:54:54.599Z,23.46
2022-10-23T08:55:54.588Z,23.85
2022-10-23T08:56:54.579Z,24.35
2022-10-23T08:57:54.579Z,25.07
2022-10-23T08:58:54.569Z,25.87
2022-10-23T08:59:54.555Z,26.69
2022-10-23T09:00:54.650Z,27.13
2022-10-23T09:01:54.629Z,27.59
2022-10-23T09:02:54.631Z,28.14
2022-10-23T09:03:54.553Z,28.14
2022-10-23T09:04:54.523Z,28.75
2022-10-23T09:05:54.509Z,28.70
2022-10-23T09:06:54.537Z,28.56
2022-10-23T09:07:54.511Z,28.46
2022-10-23T09:08:54.496Z,28.56
2022-10-23T09:09:54.547Z,28.54
2022-10-23T09:10:54.491Z,28.77
2022-10-23T09:11:54.475Z,29.03
2022-10-23T09:12:54.564Z,29.28
2022-10-23T09:13:54.467Z,29.63
2022-10-23T09:14:54.460Z,30.03
2022-10-23T09:15:54.455Z,29.97
2022-10-23T09:16:54.451Z,30.07
2022-10-23T09:17:54.451Z,30.23
2022-10-23T09:18:54.436Z,30.05
2022-10-23T09:19:54.495Z,30.12
2022-10-23T09:20:54.455Z,30.34
2022-10-23T09:21:54.410Z,30.86
2022-10-23T09:22:54.491Z,31.08
2022-10-23T09:23:54.399Z,30.90
2022-10-23T09:24:54.407Z,30.71
2022-10-23T09:25:54.416Z,30.59
2022-10-23T09:26:54.482Z,30.65
2022-10-23T09:27:56.207Z,30.53
2022-10-23T09:28:55.377Z,30.16
2022-10-23T09:29:54.375Z,29.57
2022-10-23T09:30:54.372Z,28.65
2022-10-23T09:31:54.360Z,27.53
2022-10-23T09:32:54.396Z,26.24
2022-10-23T09:33:54.370Z,24.60
2022-10-23T09:34:54.344Z,23.72
2022-10-23T09:35:54.334Z,23.29
2022-10-23T09:37:54.319Z,22.46
2022-10-23T09:38:54.316Z,21.91
2022-10-23T09:39:54.303Z,21.67
2022-10-23T09:40:54.303Z,21.50
2022-10-23T09:41:56.918Z,21.82
2022-10-23T09:42:54.375Z,22.39
2022-10-23T09:43:54.278Z,22.25
2022-10-23T09:44:54.271Z,21.85
2022-10-23T09:45:54.263Z,21.60
2022-10-23T09:46:54.296Z,20.89
2022-10-23T09:47:54.271Z,20.38
2022-10-23T09:48:54.256Z,20.06
2022-10-23T09:49:54.270Z,20.12
2022-10-23T09:50:54.235Z,19.90
2022-10-23T09:51:54.249Z,19.73
2022-10-23T09:52:54.228Z,19.63
2022-10-23T09:53:54.222Z,19.69
2022-10-23T09:54:54.212Z,19.72
2022-10-23T09:55:54.223Z,19.43
2022-10-23T09:56:54.194Z,19.20
2022-10-23T09:57:54.221Z,19.38
2022-10-23T09:58:54.184Z,19.31
2022-10-23T09:59:54.173Z,19.25
2022-10-23T10:00:55.418Z,19.15
2022-10-23T10:01:54.313Z,19.15
2022-10-23T10:02:54.180Z,19.10
2022-10-23T10:03:54.144Z,19.31
2022-10-23T10:04:54.142Z,19.29
2022-10-23T10:05:54.142Z,19.25
2022-10-23T10:06:54.126Z,19.38
2022-10-23T10:07:54.136Z,19.42
2022-10-23T10:08:54.106Z,19.51
2022-10-23T10:09:54.106Z,19.40
2022-10-23T10:10:54.134Z,19.21
2022-10-23T10:11:54.108Z,19.01
2022-10-23T10:12:54.102Z,19.23
2022-10-23T10:13:54.083Z,19.38
2022-10-23T10:14:54.074Z,19.55
2022-10-23T10:15:54.078Z,19.43
2022-10-23T10:16:54.068Z,19.61
2022-10-23T10:17:54.055Z,19.90
2022-10-23T10:18:54.059Z,20.21
2022-10-23T10:19:54.227Z,20.54
2022-10-23T10:20:54.078Z,20.77
2022-10-23T10:21:54.036Z,20.91
2022-10-23T10:22:54.039Z,21.04
2022-10-23T10:23:54.015Z,21.09
2022-10-23T10:24:54.016Z,21.11
2022-10-23T10:25:54.016Z,20.95
2022-10-23T10:26:54.016Z,20.35
2022-10-23T10:27:54.011Z,20.33
2022-10-23T10:28:53.980Z,20.15
2022-10-23T10:29:53.976Z,19.95
2022-10-23T10:30:53.968Z,19.58
2022-10-23T10:31:53.975Z,19.57
2022-10-23T10:32:53.952Z,19.79
2022-10-23T10:33:53.955Z,19.91
2022-10-23T10:34:53.959Z,20.08
2022-10-23T10:35:53.940Z,20.24
2022-10-23T10:36:53.949Z,20.20
2022-10-23T10:37:54.176Z,20.24
2022-10-23T10:38:53.919Z,20.46
2022-10-23T10:39:53.907Z,20.39
2022-10-23T10:40:53.900Z,20.16
2022-10-23T10:41:53.961Z,20.02
2022-10-23T10:42:53.931Z,19.94
2022-10-23T10:43:53.876Z,20.12
2022-10-23T10:44:53.872Z,20.08
2022-10-23T10:45:53.870Z,19.84
2022-10-23T10:46:53.871Z,20.05
2022-10-23T10:47:53.879Z,19.97
2022-10-23T10:48:53.848Z,20.02
2022-10-23T10:49:53.835Z,19.94
2022-10-23T10:50:53.840Z,19.93
2022-10-23T10:51:53.837Z,20.12
2022-10-23T10:52:53.836Z,20.13
2022-10-23T10:53:53.828Z,20.24
2022-10-23T10:54:53.835Z,20.34
2022-10-23T10:55:53.811Z,20.33
2022-10-23T10:56:53.803Z,20.33
2022-10-23T10:57:55.851Z,20.49
2022-10-23T10:58:54.835Z,20.56
2022-10-23T10:59:53.835Z,20.77
2022-10-23T11:00:53.811Z,21.04
2022-10-23T11:01:53.893Z,21.16
2022-10-23T11:02:53.760Z,21.05
2022-10-23T11:03:53.772Z,21.05
2022-10-23T11:04:53.747Z,20.90
2022-10-23T11:05:53.783Z,20.77
2022-10-23T11:06:53.732Z,20.58
2022-10-23T11:07:53.719Z,20.49
2022-10-23T11:08:58.077Z,20.35
2022-10-23T11:09:55.839Z,20.23
2022-10-23T11:10:53.695Z,20.10
2022-10-23T11:11:54.699Z,20.18
2022-10-23T11:12:53.687Z,20.21
2022-10-23T11:13:53.683Z,20.21
2022-10-23T11:14:53.696Z,20.35
2022-10-23T11:15:53.667Z,20.42
2022-10-23T11:16:53.657Z,20.51
2022-10-23T11:17:53.651Z,20.68
2022-10-23T11:18:53.643Z,20.74
2022-10-23T11:19:53.856Z,20.62
2022-10-23T11:20:53.627Z,20.65
2022-10-23T11:21:53.624Z,20.61
2022-10-23T11:22:53.617Z,20.42
2022-10-23T11:23:53.599Z,20.33
2022-10-23T11:24:55.852Z,20.16
2022-10-23T11:25:53.610Z,20.15
2022-10-23T11:26:53.655Z,20.24
2022-10-23T11:27:53.597Z,20.25
2022-10-23T11:28:53.582Z,20.18
2022-10-23T11:29:53.570Z,20.21
2022-10-23T11:30:53.571Z,20.25
2022-10-23T11:31:53.563Z,20.30
2022-10-23T11:32:53.538Z,20.34
2022-10-23T11:33:53.543Z,20.38
2022-10-23T11:34:53.531Z,20.31
2022-10-23T11:35:53.516Z,20.38
2022-10-23T11:36:53.523Z,20.27
2022-10-23T11:37:53.527Z,20.42
2022-10-23T11:38:53.492Z,20.30
2022-10-23T11:39:53.499Z,20.10
2022-10-23T11:40:53.489Z,20.05
2022-10-23T11:41:53.496Z,19.98
2022-10-23T11:42:53.471Z,19.88
2022-10-23T11:43:53.471Z,19.75
2022-10-23T11:44:53.488Z,19.58
2022-10-23T11:45:53.447Z,19.42
2022-10-23T11:46:53.462Z,19.31
2022-10-23T11:47:53.467Z,19.32
2022-10-23T11:48:53.448Z,19.42
2022-10-23T11:49:53.435Z,19.36
2022-10-23T11:50:53.410Z,19.46
2022-10-23T11:51:53.412Z,19.35
2022-10-23T11:53:12.571Z,19.25
2022-10-23T11:53:55.406Z,19.25
2022-10-23T11:54:53.383Z,19.20
2022-10-23T11:55:53.383Z,19.25
2022-10-23T11:56:53.363Z,19.31
2022-10-23T11:57:53.395Z,19.23
2022-10-23T11:58:54.528Z,19.15
2022-10-23T11:59:53.364Z,19.17
2022-10-23T12:00:53.349Z,18.99
2022-10-23T12:01:53.385Z,18.91
2022-10-23T12:02:58.394Z,18.82
2022-10-23T12:03:54.335Z,18.73
2022-10-23T12:04:53.330Z,18.64
2022-10-23T12:05:53.315Z,18.64
2022-10-23T12:06:53.315Z,18.65
2022-10-23T12:07:53.299Z,18.76
2022-10-23T12:08:53.295Z,18.76
2022-10-23T12:09:53.299Z,18.73
2022-10-23T12:10:53.479Z,18.62
2022-10-23T12:11:53.276Z,18.61
2022-10-23T12:12:53.282Z,18.52
2022-10-23T12:13:53.258Z,18.54
2022-10-23T12:14:53.254Z,18.33
2022-10-23T12:15:55.962Z,18.37
2022-10-23T12:16:55.235Z,18.37
2022-10-23T12:17:53.243Z,18.43
2022-10-23T12:18:53.296Z,18.37
2022-10-23T12:19:53.207Z,18.44
2022-10-23T12:20:53.235Z,18.43
2022-10-23T12:21:53.205Z,18.43
2022-10-23T12:22:53.192Z,18.47
2022-10-23T12:23:53.190Z,18.33
2022-10-23T12:24:53.180Z,18.34
2022-10-23T12:25:53.175Z,18.21
2022-10-23T12:26:53.186Z,18.13
2022-10-23T12:27:53.154Z,17.97
2022-10-23T12:28:53.150Z,17.97
2022-10-23T12:29:53.162Z,17.89
2022-10-23T12:31:53.142Z,17.76
2022-10-23T12:32:53.190Z,17.85
2022-10-23T12:33:53.115Z,17.76
2022-10-23T12:34:53.134Z,17.74
2022-10-23T12:35:53.098Z,17.73
2022-10-23T12:36:53.125Z,17.55
2022-10-23T12:37:53.090Z,17.59
2022-10-23T12:38:53.082Z,17.54
2022-10-23T12:39:53.074Z,17.50
2022-10-23T12:40:53.077Z,17.41
2022-10-23T12:41:53.072Z,17.51
2022-10-23T12:42:53.055Z,17.41
2022-10-23T12:43:53.069Z,17.38
2022-10-23T12:44:53.055Z,17.44
2022-10-23T12:45:53.038Z,17.38
2022-10-23T12:46:53.035Z,17.43
2022-10-23T12:47:53.029Z,17.43
2022-10-23T12:48:53.013Z,17.48
2022-10-23T12:49:53.006Z,17.48
2022-10-23T12:50:53.018Z,17.50
2022-10-23T12:51:52.990Z,17.50
2022-10-23T12:52:52.995Z,17.55
2022-10-23T12:53:52.996Z,17.67
2022-10-23T12:54:52.969Z,17.66
2022-10-23T12:55:53.010Z,17.69
2022-10-23T12:56:52.970Z,17.71
2022-10-23T12:57:52.953Z,17.67
2022-10-23T12:58:52.945Z,17.82
2022-10-23T12:59:52.954Z,17.64
2022-10-23T13:00:52.980Z,17.73
2022-10-23T13:01:53.207Z,17.62
2022-10-23T13:02:53.917Z,17.55
2022-10-23T13:03:52.909Z,17.54
2022-10-23T13:04:52.897Z,17.57
2022-10-23T13:05:52.908Z,17.48
2022-10-23T13:06:52.878Z,17.54
2022-10-23T13:07:52.894Z,17.53
2022-10-23T13:08:52.868Z,17.57
2022-10-23T13:09:52.866Z,17.67